Time,TemperatureF,DewpointF,PressureIn,WindDirection,WindDirectionDegrees,WindSpeedMPH,WindSpeedGustMPH,Humidity,HourlyPrecipIn,Conditions,Clouds,dailyrainin,SoftwareType,DateUTC
2013-01-07 00:00:00,39.5,35.1,30.19,East,83,0.0,0.0,84,0.00,,,0.01,Wunderground v.1.15,2013-01-07 05:00:00,
2013-01-07 00:10:00,39.2,35.1,30.19,East,83,0.0,0.0,85,0.00,,,0.00,Wunderground v.1.15,2013-01-07 05:10:00,
2013-01-07 00:25:00,39.0,35.2,30.19,East,83,0.0,0.0,86,0.00,,,0.00,Wunderground v.1.15,2013-01-07 05:25:00,
2013-01-07 00:35:00,39.0,35.2,30.20,East,84,0.0,0.0,86,0.00,,,0.00,Wunderground v.1.15,2013-01-07 05:35:00,
2013-01-07 00:45:00,38.9,35.1,30.19,East,83,0.0,0.0,86,0.00,,,0.00,Wunderground v.1.15,2013-01-07 05:45:00,
2013-01-07 01:00:00,38.3,34.5,30.19,East,83,0.0,0.0,86,0.00,,,0.00,Wunderground v.1.15,2013-01-07 06:00:00,
2013-01-07 01:10:00,37.8,34.0,30.20,East,83,0.0,0.0,86,0.00,,,0.00,Wunderground v.1.15,2013-01-07 06:10:00,
2013-01-07 01:20:00,37.4,33.9,30.20,East,84,0.0,0.0,87,0.00,,,0.00,Wunderground v.1.15,2013-01-07 06:20:00,
2013-01-07 01:25:00,37.2,33.7,30.20,East,83,0.0,0.0,87,0.00,,,0.00,Wunderground v.1.15,2013-01-07 06:25:00,
2013-01-07 01:35:00,36.7,33.5,30.21,East,83,0.0,0.0,88,0.00,,,0.00,Wunderground v.1.15,2013-01-07 06:35:00,
2013-01-07 01:45:00,36.3,33.1,30.20,East,84,0.0,0.0,88,0.00,,,0.00,Wunderground v.1.15,2013-01-07 06:45:00,
2013-01-07 01:55:00,35.9,33.0,30.21,East,83,0.0,0.0,89,0.00,,,0.00,Wunderground v.1.15,2013-01-07 06:55:00,
2013-01-07 02:00:00,35.6,32.7,30.21,East,84,0.0,0.0,89,0.00,,,0.00,Wunderground v.1.15,2013-01-07 07:00:00,
2013-01-07 02:10:00,35.2,32.3,30.21,East,84,0.0,0.0,89,0.00,,,0.00,Wunderground v.1.15,2013-01-07 07:10:00,
2013-01-07 02:25:00,34.6,32.0,30.21,East,83,0.0,0.0,90,0.00,,,0.00,Wunderground v.1.15,2013-01-07 07:25:00,
2013-01-07 02:35:00,34.4,31.8,30.22,East,83,0.0,0.0,90,0.00,,,0.00,Wunderground v.1.15,2013-01-07 07:35:00,
2013-01-07 02:45:00,34.0,31.4,30.22,East,83,0.0,0.0,90,0.00,,,0.00,Wunderground v.1.15,2013-01-07 07:45:00,
2013-01-07 03:00:00,33.6,31.3,30.22,East,84,0.0,0.0,91,0.00,,,0.00,Wunderground v.1.15,2013-01-07 08:00:00,
2013-01-07 03:10:00,33.4,31.1,30.22,East,83,0.0,0.0,91,0.00,,,0.00,Wunderground v.1.15,2013-01-07 08:10:00,
2013-01-07 03:25:00,33.1,30.8,30.22,East,84,0.0,0.0,91,0.00,,,0.00,Wunderground v.1.15,2013-01-07 08:25:00,
2013-01-07 03:35:00,32.9,30.6,30.22,East,84,0.0,0.0,91,0.00,,,0.00,Wunderground v.1.15,2013-01-07 08:35:00,
2013-01-07 03:45:00,32.7,30.4,30.23,East,84,0.0,0.0,91,0.00,,,0.00,Wunderground v.1.15,2013-01-07 08:45:00,
2013-01-07 04:00:00,32.3,30.0,30.23,East,83,0.0,0.0,91,0.00,,,0.00,Wunderground v.1.15,2013-01-07 09:00:00,
2013-01-07 04:10:00,32.2,29.9,30.23,East,84,0.0,0.0,91,0.00,,,0.00,Wunderground v.1.15,2013-01-07 09:10:00,
2013-01-07 04:20:00,32.0,29.7,30.23,East,83,0.0,0.0,91,0.00,,,0.00,Wunderground v.1.15,2013-01-07 09:20:00,
2013-01-07 04:45:00,31.6,29.5,30.25,East,83,0.0,0.0,92,0.00,,,0.00,Wunderground v.1.15,2013-01-07 09:45:00,
2013-01-07 04:55:00,31.5,29.4,30.25,East,84,0.0,0.0,92,0.00,,,0.00,Wunderground v.1.15,2013-01-07 09:55:00,
2013-01-07 05:05:00,31.4,29.3,30.25,East,83,0.0,0.0,92,0.00,,,0.00,Wunderground v.1.15,2013-01-07 10:05:00,
2013-01-07 05:20:00,31.2,29.1,30.26,East,84,0.0,0.0,92,0.00,,,0.00,Wunderground v.1.15,2013-01-07 10:20:00,
2013-01-07 05:30:00,31.2,29.1,30.26,East,83,0.0,0.0,92,0.00,,,0.00,Wunderground v.1.15,2013-01-07 10:30:00,
2013-01-07 05:45:00,31.2,29.4,30.27,East,83,0.0,0.0,93,0.00,,,0.00,Wunderground v.1.15,2013-01-07 10:45:00,
2013-01-07 05:55:00,31.2,29.4,30.27,East,83,0.0,0.0,93,0.00,,,0.00,Wunderground v.1.15,2013-01-07 10:55:00,
2013-01-07 06:00:00,31.3,29.5,30.27,East,84,0.0,0.0,93,0.00,,,0.00,Wunderground v.1.15,2013-01-07 11:00:00,
2013-01-07 06:20:00,31.8,30.0,30.29,East,83,0.0,0.0,93,0.00,,,0.00,Wunderground v.1.15,2013-01-07 11:20:00,
2013-01-07 06:30:00,32.1,30.3,30.30,East,84,0.0,0.0,93,0.00,,,0.00,Wunderground v.1.15,2013-01-07 11:30:00,
2013-01-07 06:40:00,32.5,30.7,30.31,East,84,0.0,0.0,93,0.00,,,0.00,Wunderground v.1.15,2013-01-07 11:40:00,
2013-01-07 06:50:00,33.3,31.2,30.32,East,83,0.0,0.0,92,0.00,,,0.00,Wunderground v.1.15,2013-01-07 11:50:00,
2013-01-07 07:05:00,34.0,31.4,30.32,East,83,0.0,0.0,90,0.00,,,0.00,Wunderground v.1.15,2013-01-07 12:05:00,
2013-01-07 07:20:00,34.5,31.0,30.33,East,83,0.0,0.0,87,0.00,,,0.00,Wunderground v.1.15,2013-01-07 12:20:00,
2013-01-07 07:30:00,35.2,31.1,30.34,East,83,0.0,0.0,85,0.00,,,0.00,Wunderground v.1.15,2013-01-07 12:30:00,
2013-01-07 07:40:00,36.2,31.2,30.35,East,83,0.0,0.0,82,0.00,,,0.00,Wunderground v.1.15,2013-01-07 12:40:00,
2013-01-07 07:50:00,37.0,31.4,30.35,ESE,117,0.0,0.0,80,0.00,,,0.00,Wunderground v.1.15,2013-01-07 12:50:00,
2013-01-07 08:00:00,37.1,31.2,30.36,ESE,117,0.0,0.0,79,0.00,,,0.00,Wunderground v.1.15,2013-01-07 13:00:00,
2013-01-07 08:15:00,37.8,31.2,30.36,East,91,0.0,0.0,77,0.00,,,0.00,Wunderground v.1.15,2013-01-07 13:15:00,
2013-01-07 08:25:00,38.3,31.4,30.37,ENE,68,0.0,0.0,76,0.00,,,0.00,Wunderground v.1.15,2013-01-07 13:25:00,
2013-01-07 08:35:00,39.0,32.1,30.38,ENE,77,0.0,0.0,76,0.00,,,0.00,Wunderground v.1.15,2013-01-07 13:35:00,
2013-01-07 08:50:00,40.3,32.0,30.39,SE,134,0.0,0.0,72,0.00,,,0.00,Wunderground v.1.15,2013-01-07 13:50:00,
2013-01-07 09:00:00,41.0,32.3,30.39,SE,134,0.0,0.0,71,0.00,,,0.00,Wunderground v.1.15,2013-01-07 14:00:00,
2013-01-07 09:10:00,41.8,32.4,30.40,ENE,73,0.0,0.0,69,0.00,,,0.00,Wunderground v.1.15,2013-01-07 14:10:00,
2013-01-07 09:15:00,42.2,32.4,30.40,ENE,73,0.0,0.0,68,0.00,,,0.00,Wunderground v.1.15,2013-01-07 14:15:00,
2013-01-07 09:25:00,43.0,32.4,30.40,East,92,0.0,0.0,66,0.00,,,0.00,Wunderground v.1.15,2013-01-07 14:25:00,
2013-01-07 09:35:00,43.6,33.0,30.41,East,82,0.0,1.0,66,0.00,,,0.00,Wunderground v.1.15,2013-01-07 14:35:00,
2013-01-07 09:45:00,44.2,33.2,30.41,East,81,0.0,1.0,65,0.00,,,0.00,Wunderground v.1.15,2013-01-07 14:45:00,
2013-01-07 09:55:00,44.8,33.0,30.42,ENE,73,0.0,0.0,63,0.00,,,0.00,Wunderground v.1.15,2013-01-07 14:55:00,
2013-01-07 10:05:00,45.3,33.0,30.42,ENE,78,0.0,2.0,62,0.00,,,0.00,Wunderground v.1.15,2013-01-07 15:05:00,
2013-01-07 10:20:00,46.1,33.8,30.42,NE,51,0.0,0.0,62,0.00,,,0.00,Wunderground v.1.15,2013-01-07 15:20:00,
2013-01-07 10:30:00,46.9,33.3,30.43,East,88,0.0,0.0,59,0.00,,,0.00,Wunderground v.1.15,2013-01-07 15:30:00,
2013-01-07 10:40:00,47.2,33.2,30.43,WSW,238,0.0,1.0,58,0.00,,,0.00,Wunderground v.1.15,2013-01-07 15:40:00,
2013-01-07 10:50:00,47.7,33.6,30.43,ENE,73,0.0,0.0,58,0.00,,,0.00,Wunderground v.1.15,2013-01-07 15:50:00,
2013-01-07 11:00:00,48.2,33.7,30.43,WSW,258,0.0,0.0,57,0.00,,,0.00,Wunderground v.1.15,2013-01-07 16:00:00,
2013-01-07 11:15:00,48.5,33.5,30.42,SW,236,0.0,2.0,56,0.00,,,0.00,Wunderground v.1.15,2013-01-07 16:15:00,
2013-01-07 11:25:00,48.8,33.3,30.41,ESE,110,0.0,1.0,55,0.00,,,0.00,Wunderground v.1.15,2013-01-07 16:25:00,
2013-01-07 11:40:00,49.5,33.1,30.40,East,79,0.0,1.0,53,0.00,,,0.00,Wunderground v.1.15,2013-01-07 16:40:00,
2013-01-07 11:50:00,49.5,33.1,30.40,East,81,1.0,1.0,53,0.00,,,0.00,Wunderground v.1.15,2013-01-07 16:50:00,
2013-01-07 12:00:00,49.7,33.2,30.40,SE,142,0.0,0.0,53,0.00,,,0.00,Wunderground v.1.15,2013-01-07 17:00:00,
2013-01-07 12:05:00,49.9,34.4,30.40,ENE,77,0.0,0.0,55,0.00,,,0.00,Wunderground v.1.15,2013-01-07 17:05:00,
2013-01-07 12:15:00,50.1,33.1,30.40,East,92,1.0,1.0,52,0.00,,,0.00,Wunderground v.1.15,2013-01-07 17:15:00,
2013-01-07 12:25:00,50.2,33.2,30.39,NNE,16,0.0,1.0,52,0.00,,,0.00,Wunderground v.1.15,2013-01-07 17:25:00,
2013-01-07 12:45:00,51.2,33.7,30.39,ESE,120,0.0,0.0,51,0.00,,,0.00,Wunderground v.1.15,2013-01-07 17:45:00,
2013-01-07 12:55:00,51.3,33.8,30.38,ESE,106,0.0,0.0,51,0.00,,,0.00,Wunderground v.1.15,2013-01-07 17:55:00,
2013-01-07 13:10:00,51.3,33.3,30.38,East,98,0.0,0.0,50,0.00,,,0.00,Wunderground v.1.15,2013-01-07 18:10:00,
2013-01-07 13:20:00,51.3,33.3,30.38,East,90,0.0,0.0,50,0.00,,,0.00,Wunderground v.1.15,2013-01-07 18:20:00,
2013-01-07 13:30:00,51.6,33.0,30.38,West,274,0.0,0.0,49,0.00,,,0.00,Wunderground v.1.15,2013-01-07 18:30:00,
2013-01-07 13:40:00,51.6,33.6,30.38,East,79,0.0,0.0,50,0.00,,,0.00,Wunderground v.1.15,2013-01-07 18:40:00,
2013-01-07 13:50:00,51.9,33.8,30.38,NNE,16,0.0,0.0,50,0.00,,,0.00,Wunderground v.1.15,2013-01-07 18:50:00,
2013-01-07 14:05:00,51.9,33.8,30.38,ESE,117,0.0,0.0,50,0.00,,,0.00,Wunderground v.1.15,2013-01-07 19:05:00,
2013-01-07 14:15:00,52.1,34.5,30.38,ESE,117,0.0,0.0,51,0.00,,,0.00,Wunderground v.1.15,2013-01-07 19:15:00,
2013-01-07 14:25:00,51.8,32.7,30.38,ESE,110,0.0,0.0,48,0.00,,,0.00,Wunderground v.1.15,2013-01-07 19:25:00,
2013-01-07 14:40:00,51.5,33.0,30.38,WSW,255,0.0,0.0,49,0.00,,,0.00,Wunderground v.1.15,2013-01-07 19:40:00,
2013-01-07 14:50:00,51.7,33.6,30.38,ESE,104,0.0,0.0,50,0.00,,,0.00,Wunderground v.1.15,2013-01-07 19:50:00,
2013-01-07 15:00:00,51.8,33.2,30.38,SE,138,0.0,0.0,49,0.00,,,0.00,Wunderground v.1.15,2013-01-07 20:00:00,
2013-01-07 15:15:00,51.2,33.2,30.39,SE,138,0.0,0.0,50,0.00,,,0.00,Wunderground v.1.15,2013-01-07 20:15:00,
2013-01-07 15:30:00,50.9,33.4,30.39,ENE,58,0.0,0.0,51,0.00,,,0.00,Wunderground v.1.15,2013-01-07 20:30:00,
2013-01-07 15:40:00,51.2,33.2,30.39,NW,323,0.0,0.0,50,0.00,,,0.00,Wunderground v.1.15,2013-01-07 20:40:00,
2013-01-07 15:50:00,51.0,33.0,30.39,NW,323,0.0,0.0,50,0.00,,,0.00,Wunderground v.1.15,2013-01-07 20:50:00,
2013-01-07 16:05:00,50.5,34.5,30.39,NW,325,0.0,0.0,54,0.00,,,0.00,Wunderground v.1.15,2013-01-07 21:05:00,
2013-01-07 16:15:00,50.3,33.3,30.40,NW,325,0.0,0.0,52,0.00,,,0.00,Wunderground v.1.15,2013-01-07 21:15:00,
2013-01-07 16:20:00,50.2,33.2,30.40,NNW,330,0.0,0.0,52,0.00,,,0.00,Wunderground v.1.15,2013-01-07 21:20:00,
2013-01-07 16:35:00,49.7,33.7,30.40,NNW,330,0.0,0.0,54,0.00,,,0.00,Wunderground v.1.15,2013-01-07 21:35:00,
2013-01-07 16:40:00,49.4,34.3,30.40,NNW,330,0.0,0.0,56,0.00,,,0.00,Wunderground v.1.15,2013-01-07 21:40:00,
2013-01-07 16:55:00,48.3,34.6,30.41,NNW,330,0.0,0.0,59,0.00,,,0.00,Wunderground v.1.15,2013-01-07 21:55:00,
2013-01-07 17:05:00,47.6,34.0,30.41,NNW,330,0.0,0.0,59,0.00,,,0.00,Wunderground v.1.15,2013-01-07 22:05:00,
2013-01-07 17:15:00,46.9,34.1,30.41,NNW,330,0.0,0.0,61,0.00,,,0.00,Wunderground v.1.15,2013-01-07 22:15:00,
2013-01-07 17:30:00,45.5,34.4,30.41,NNW,330,0.0,0.0,65,0.00,,,0.00,Wunderground v.1.15,2013-01-07 22:30:00,
2013-01-07 17:40:00,44.8,34.1,30.41,NNW,330,0.0,0.0,66,0.00,,,0.00,Wunderground v.1.15,2013-01-07 22:40:00,
2013-01-07 17:50:00,44.1,34.2,30.41,NNW,330,0.0,0.0,68,0.00,,,0.00,Wunderground v.1.15,2013-01-07 22:50:00,
2013-01-07 18:00:00,43.3,34.5,30.41,NNW,330,0.0,0.0,71,0.00,,,0.00,Wunderground v.1.15,2013-01-07 23:00:00,
2013-01-07 18:15:00,42.3,34.3,30.41,NNW,330,0.0,0.0,73,0.00,,,0.00,Wunderground v.1.15,2013-01-07 23:15:00,
2013-01-07 18:25:00,41.6,33.9,30.41,NNW,330,0.0,0.0,74,0.00,,,0.00,Wunderground v.1.15,2013-01-07 23:25:00,
2013-01-07 18:30:00,41.3,34.3,30.41,NNW,330,0.0,0.0,76,0.00,,,0.00,Wunderground v.1.15,2013-01-07 23:30:00,
2013-01-07 18:50:00,40.1,33.1,30.42,NNW,330,0.0,0.0,76,0.00,,,0.00,Wunderground v.1.15,2013-01-07 23:50:00,
2013-01-07 19:00:00,39.6,33.0,30.42,NNW,330,0.0,0.0,77,0.00,,,0.00,Wunderground v.1.15,2013-01-08 00:00:00,
2013-01-07 19:10:00,39.1,33.1,30.42,NNW,330,0.0,0.0,79,0.00,,,0.00,Wunderground v.1.15,2013-01-08 00:10:00,
2013-01-07 19:25:00,38.4,32.8,30.42,NNW,330,0.0,0.0,80,0.00,,,0.00,Wunderground v.1.15,2013-01-08 00:25:00,
2013-01-07 19:35:00,37.9,32.3,30.43,NNW,330,0.0,0.0,80,0.00,,,0.00,Wunderground v.1.15,2013-01-08 00:35:00,
2013-01-07 19:45:00,37.4,32.1,30.43,NNW,330,0.0,0.0,81,0.00,,,0.00,Wunderground v.1.15,2013-01-08 00:45:00,
2013-01-07 20:00:00,36.9,31.9,30.44,NNW,330,0.0,0.0,82,0.00,,,0.00,Wunderground v.1.15,2013-01-08 01:00:00,
2013-01-07 20:10:00,36.6,31.9,30.44,NNW,330,0.0,0.0,83,0.00,,,0.00,Wunderground v.1.15,2013-01-08 01:10:00,
2013-01-07 20:15:00,36.4,31.7,30.44,NNW,330,0.0,0.0,83,0.00,,,0.00,Wunderground v.1.15,2013-01-08 01:15:00,
2013-01-07 20:25:00,36.1,31.7,30.44,NNW,330,0.0,0.0,84,0.00,,,0.00,Wunderground v.1.15,2013-01-08 01:25:00,
2013-01-07 20:35:00,35.9,31.5,30.44,NNW,330,0.0,0.0,84,0.00,,,0.00,Wunderground v.1.15,2013-01-08 01:35:00,
2013-01-07 20:50:00,35.4,31.3,30.44,NNW,330,0.0,0.0,85,0.00,,,0.00,Wunderground v.1.15,2013-01-08 01:50:00,
2013-01-07 21:00:00,35.2,31.1,30.43,NNW,330,0.0,0.0,85,0.00,,,0.00,Wunderground v.1.15,2013-01-08 02:00:00,
2013-01-07 21:10:00,34.9,31.1,30.44,NNW,330,0.0,0.0,86,0.00,,,0.00,Wunderground v.1.15,2013-01-08 02:10:00,
2013-01-07 21:25:00,34.5,30.7,30.44,NNW,330,0.0,0.0,86,0.00,,,0.00,Wunderground v.1.15,2013-01-08 02:25:00,
2013-01-07 21:35:00,34.3,30.5,30.44,NNW,330,0.0,0.0,86,0.00,,,0.00,Wunderground v.1.15,2013-01-08 02:35:00,
2013-01-07 21:45:00,34.0,30.5,30.44,NNW,330,0.0,0.0,87,0.00,,,0.00,Wunderground v.1.15,2013-01-08 02:45:00,
2013-01-07 21:55:00,33.8,30.3,30.44,NNW,330,0.0,0.0,87,0.00,,,0.00,Wunderground v.1.15,2013-01-08 02:55:00,
2013-01-07 22:05:00,33.6,30.4,30.43,NNW,330,0.0,0.0,88,0.00,,,0.00,Wunderground v.1.15,2013-01-08 03:05:00,
2013-01-07 22:20:00,33.2,30.0,30.44,NNW,330,0.0,0.0,88,0.00,,,0.00,Wunderground v.1.15,2013-01-08 03:20:00,
2013-01-07 22:30:00,33.0,30.1,30.44,NNW,330,0.0,0.0,89,0.00,,,0.00,Wunderground v.1.15,2013-01-08 03:30:00,
2013-01-07 22:45:00,32.8,29.9,30.43,NNW,330,0.0,0.0,89,0.00,,,0.00,Wunderground v.1.15,2013-01-08 03:45:00,
2013-01-07 23:05:00,32.7,30.1,30.43,NNW,330,0.0,0.0,90,0.00,,,0.00,Wunderground v.1.15,2013-01-08 04:05:00,
2013-01-07 23:20:00,32.4,29.5,30.43,NNW,330,0.0,0.0,89,0.00,,,0.00,Wunderground v.1.15,2013-01-08 04:20:00,
2013-01-07 23:30:00,32.1,29.2,30.42,NNW,330,0.0,0.0,89,0.00,,,0.00,Wunderground v.1.15,2013-01-08 04:30:00,
2013-01-07 23:40:00,31.8,28.9,30.42,NNW,330,0.0,0.0,89,0.00,,,0.00,Wunderground v.1.15,2013-01-08 04:40:00,